createdAt,value
2023-09-07T00:02:15.769Z,61.77
2023-09-07T00:04:44.322Z,62.27
2023-09-07T00:07:12.525Z,62.05
2023-09-07T00:09:40.562Z,60.83
2023-09-07T00:12:08.722Z,62.06
2023-09-07T00:14:36.680Z,62.44
2023-09-07T00:17:06.842Z,62.87
2023-09-07T00:19:37.984Z,62.00
2023-09-07T00:22:06.559Z,63.12
2023-09-07T00:24:34.608Z,61.77
2023-09-07T00:27:05.453Z,62.44
2023-09-07T00:29:33.740Z,62.75
2023-09-07T00:32:01.663Z,63.56
2023-09-07T00:34:31.200Z,63.62
2023-09-07T00:36:59.616Z,63.45
2023-09-07T00:39:27.561Z,63.30
2023-09-07T00:41:56.390Z,63.15
2023-09-07T00:44:24.454Z,63.17
2023-09-07T00:46:52.734Z,64.51
2023-09-07T00:49:20.932Z,63.32
2023-09-07T00:51:50.504Z,64.40
2023-09-07T00:54:18.715Z,64.22
2023-09-07T00:56:47.305Z,64.44
2023-09-07T00:59:15.575Z,63.63
2023-09-07T01:01:44.442Z,63.23
2023-09-07T01:04:12.978Z,63.11
2023-09-07T01:06:46.887Z,63.62
2023-09-07T01:09:22.031Z,64.66
2023-09-07T01:11:51.216Z,63.57
2023-09-07T01:14:19.249Z,64.29
2023-09-07T01:16:47.454Z,63.78
2023-09-07T01:19:15.579Z,64.83
2023-09-07T01:25:58.034Z,63.77
2023-09-07T01:28:26.313Z,63.96
2023-09-07T01:30:54.583Z,64.33
2023-09-07T01:33:22.793Z,64.18
2023-09-07T01:35:51.166Z,64.13
2023-09-07T01:38:19.245Z,65.26
2023-09-07T01:40:47.272Z,64.35
2023-09-07T01:43:16.648Z,64.22
2023-09-07T01:45:44.678Z,64.57
2023-09-07T01:48:14.419Z,65.05
2023-09-07T01:50:42.704Z,66.52
2023-09-07T01:53:10.584Z,64.88
2023-09-07T01:55:38.728Z,64.60
2023-09-07T01:58:06.754Z,65.38
2023-09-07T02:00:40.097Z,64.99
2023-09-07T02:03:08.802Z,65.80
2023-09-07T02:05:36.737Z,66.93
2023-09-07T02:08:05.230Z,66.01
2023-09-07T02:10:33.248Z,67.67
2023-09-07T02:13:01.250Z,68.36
2023-09-07T02:15:29.150Z,67.71
2023-09-07T02:17:58.701Z,67.26
2023-09-07T02:20:26.875Z,67.41
2023-09-07T02:22:54.782Z,68.01
2023-09-07T02:25:23.338Z,68.38
2023-09-07T02:27:51.356Z,67.67
2023-09-07T02:30:19.651Z,67.33
2023-09-07T02:32:47.638Z,69.17
2023-09-07T02:35:17.119Z,68.72
2023-09-07T02:37:45.187Z,67.61
2023-09-07T02:40:13.729Z,67.58
2023-09-07T02:42:41.658Z,67.57
2023-09-07T02:45:11.839Z,67.06
2023-09-07T02:47:40.044Z,67.78
2023-09-07T02:50:09.300Z,66.52
2023-09-07T02:52:38.842Z,66.64
2023-09-07T02:55:08.084Z,67.16
2023-09-07T02:57:37.383Z,66.40
2023-09-07T03:00:10.578Z,67.08
2023-09-07T03:02:39.508Z,66.19
2023-09-07T03:05:08.000Z,66.59
2023-09-07T03:07:36.237Z,66.33
2023-09-07T03:10:05.830Z,66.99
2023-09-07T03:12:34.511Z,65.36
2023-09-07T03:15:04.687Z,67.18
2023-09-07T03:17:33.291Z,65.92
2023-09-07T03:20:01.302Z,65.92
2023-09-07T03:22:30.659Z,65.70
2023-09-07T03:24:59.018Z,66.40
2023-09-07T03:27:28.345Z,65.01
2023-09-07T03:29:56.270Z,65.29
2023-09-07T03:32:24.601Z,65.92
2023-09-07T03:34:52.630Z,66.42
2023-09-07T03:37:20.511Z,66.65
2023-09-07T03:39:49.394Z,65.82
2023-09-07T03:42:17.310Z,65.33
2023-09-07T03:44:46.711Z,66.92
2023-09-07T03:47:16.616Z,66.34
2023-09-07T03:49:45.403Z,66.55
2023-09-07T03:52:14.012Z,67.61
2023-09-07T03:54:41.934Z,67.18
2023-09-07T03:57:09.868Z,65.73
2023-09-07T03:59:37.793Z,65.48
2023-09-07T04:02:07.302Z,66.74
2023-09-07T04:04:35.638Z,67.80
2023-09-07T04:07:04.443Z,66.32
2023-09-07T04:09:32.927Z,67.38
2023-09-07T04:12:01.839Z,66.38
2023-09-07T04:14:31.401Z,65.08
2023-09-07T04:16:59.520Z,64.92
2023-09-07T04:19:28.988Z,63.83
2023-09-07T04:21:57.055Z,63.83
2023-09-07T04:24:25.336Z,62.97
2023-09-07T04:26:53.375Z,63.59
2023-09-07T04:29:21.358Z,62.13
2023-09-07T04:31:50.545Z,63.84
2023-09-07T04:34:18.772Z,62.32
2023-09-07T04:36:48.208Z,62.40
2023-09-07T04:39:16.333Z,64.53
2023-09-07T04:41:44.422Z,64.81
2023-09-07T04:44:12.755Z,65.23
2023-09-07T04:46:40.966Z,64.51
2023-09-07T04:49:09.493Z,65.34
2023-09-07T04:51:37.454Z,64.49
2023-09-07T04:54:07.165Z,65.45
2023-09-07T04:56:35.153Z,64.54
2023-09-07T04:59:03.392Z,63.86
2023-09-07T05:01:32.982Z,64.87
2023-09-07T05:04:03.077Z,64.79
2023-09-07T05:06:31.456Z,66.80
2023-09-07T05:08:59.499Z,65.74
2023-09-07T05:11:28.777Z,63.57
2023-09-07T05:13:56.801Z,65.63
2023-09-07T05:16:25.087Z,63.46
2023-09-07T05:18:53.135Z,64.51
2023-09-07T05:21:21.110Z,63.45
2023-09-07T05:23:49.376Z,63.76
2023-09-07T05:26:22.993Z,65.45
2023-09-07T05:28:52.439Z,63.62
2023-09-07T05:31:20.502Z,62.69
2023-09-07T05:33:48.833Z,63.04
2023-09-07T05:36:16.866Z,63.97
2023-09-07T05:38:44.773Z,65.03
2023-09-07T05:41:12.951Z,63.73
2023-09-07T05:43:40.961Z,65.84
2023-09-07T05:46:10.866Z,60.62
2023-09-07T05:48:39.052Z,63.41
2023-09-07T05:51:07.149Z,61.77
2023-09-07T05:53:35.074Z,60.51
2023-09-07T05:56:03.511Z,59.95
2023-09-07T05:58:31.727Z,61.59
2023-09-07T06:01:00.214Z,59.42
2023-09-07T06:03:30.121Z,61.16
2023-09-07T06:05:58.644Z,62.16
2023-09-07T06:08:26.577Z,59.53
2023-09-07T06:10:55.805Z,58.93
2023-09-07T06:13:23.750Z,58.44
2023-09-07T06:15:52.057Z,59.37
2023-09-07T06:18:20.514Z,58.21
2023-09-07T06:20:49.953Z,57.11
2023-09-07T06:23:18.104Z,57.19
2023-09-07T06:25:46.122Z,56.93
2023-09-07T06:28:15.124Z,55.91
2023-09-07T06:30:43.368Z,56.02
2023-09-07T06:33:11.512Z,55.49
2023-09-07T06:35:39.802Z,59.72
2023-09-07T06:38:09.404Z,57.96
2023-09-07T06:40:37.471Z,59.59
2023-09-07T06:43:06.478Z,57.06
2023-09-07T06:45:37.135Z,55.51
2023-09-07T06:48:06.476Z,55.75
2023-09-07T06:50:34.726Z,56.57
2023-09-07T06:53:03.935Z,58.67
2023-09-07T06:55:33.579Z,55.08
2023-09-07T06:58:02.516Z,54.20
2023-09-07T07:00:31.127Z,56.13
2023-09-07T07:02:59.845Z,53.38
2023-09-07T07:05:29.644Z,52.87
2023-09-07T07:07:57.799Z,52.70
2023-09-07T07:10:26.271Z,52.89
2023-09-07T07:12:55.713Z,52.58
2023-09-07T07:15:23.648Z,52.33
2023-09-07T07:17:51.759Z,51.58
2023-09-07T07:20:20.214Z,51.87
2023-09-07T07:22:48.132Z,51.99
2023-09-07T07:25:18.425Z,51.93
2023-09-07T07:27:47.096Z,51.73
2023-09-07T07:30:16.457Z,51.30
2023-09-07T07:32:44.480Z,50.82
2023-09-07T07:35:12.612Z,51.65
2023-09-07T07:37:40.630Z,50.83
2023-09-07T07:40:09.799Z,51.98
2023-09-07T07:42:38.204Z,51.16
2023-09-07T07:45:07.342Z,50.47
2023-09-07T07:47:36.596Z,50.18
2023-09-07T07:50:05.340Z,50.47
2023-09-07T07:52:33.660Z,50.58
2023-09-07T07:55:01.578Z,50.70
2023-09-07T07:57:29.491Z,50.03
2023-09-07T07:59:58.213Z,50.91
2023-09-07T08:02:27.530Z,53.56
2023-09-07T08:04:56.902Z,49.36
2023-09-07T08:07:24.976Z,48.75
2023-09-07T08:09:53.136Z,49.24
2023-09-07T08:12:21.232Z,49.29
2023-09-07T08:14:49.318Z,49.21
2023-09-07T08:17:17.507Z,48.60
2023-09-07T08:19:45.732Z,49.52
2023-09-07T08:22:15.051Z,48.71
2023-09-07T08:24:43.619Z,50.59
2023-09-07T08:27:12.532Z,47.36
2023-09-07T08:29:41.440Z,47.72
2023-09-07T08:32:12.887Z,47.94
2023-09-07T08:34:41.843Z,47.08
2023-09-07T08:37:09.853Z,46.78
2023-09-07T08:39:40.475Z,46.76
2023-09-07T08:42:09.070Z,46.13
2023-09-07T08:44:39.574Z,46.04
2023-09-07T08:47:08.310Z,45.60
2023-09-07T08:49:37.713Z,44.38
2023-09-07T08:52:07.832Z,47.40
2023-09-07T08:54:36.875Z,45.18
2023-09-07T08:57:07.459Z,44.97
2023-09-07T08:59:35.363Z,44.52
2023-09-07T09:02:05.492Z,43.77
2023-09-07T09:04:35.161Z,44.14
2023-09-07T09:07:04.980Z,43.38
2023-09-07T09:09:33.356Z,44.79
2023-09-07T09:12:10.603Z,43.05
2023-09-07T09:14:38.536Z,44.54
2023-09-07T09:17:06.437Z,42.33
2023-09-07T09:19:34.785Z,41.96
2023-09-07T09:22:04.894Z,41.50
2023-09-07T09:24:35.733Z,41.05
2023-09-07T09:27:03.813Z,41.26
2023-09-07T09:29:35.177Z,41.06
2023-09-07T09:32:05.735Z,40.46
2023-09-07T09:34:35.953Z,40.04
2023-09-07T09:37:04.723Z,39.98
2023-09-07T09:39:32.709Z,39.85
2023-09-07T09:42:01.204Z,39.65
2023-09-07T09:44:31.294Z,39.84
2023-09-07T09:47:01.716Z,39.18
2023-09-07T09:49:31.309Z,40.01
2023-09-07T09:52:00.673Z,38.88
2023-09-07T09:54:29.962Z,39.16
2023-09-07T09:56:57.963Z,38.51
2023-09-07T09:59:25.888Z,38.37
2023-09-07T10:01:56.188Z,37.92
2023-09-07T10:04:26.964Z,37.86
2023-09-07T10:07:00.543Z,38.95
2023-09-07T10:09:31.710Z,37.08
2023-09-07T10:12:01.099Z,37.03
2023-09-07T10:14:40.458Z,35.94
2023-09-07T10:17:10.672Z,34.93
2023-09-07T10:19:45.678Z,34.43
2023-09-07T10:22:23.481Z,33.20
2023-09-07T10:24:59.769Z,34.59
2023-09-07T10:27:27.694Z,32.84
2023-09-07T10:29:57.257Z,33.36
2023-09-07T10:32:25.374Z,33.55
2023-09-07T10:34:54.735Z,34.64
2023-09-07T10:37:31.068Z,32.27
2023-09-07T10:39:59.108Z,31.56
2023-09-07T10:42:27.786Z,32.77
2023-09-07T10:44:56.433Z,31.19
2023-09-07T10:47:24.356Z,33.60
2023-09-07T10:49:52.237Z,30.60
2023-09-07T10:52:21.612Z,31.10
2023-09-07T10:54:58.852Z,30.59
2023-09-07T10:57:27.902Z,29.81
2023-09-07T10:59:56.338Z,31.92
2023-09-07T11:02:27.290Z,31.79
2023-09-07T11:04:55.467Z,29.79
2023-09-07T11:07:24.789Z,29.53
2023-09-07T11:09:54.361Z,29.92
2023-09-07T11:12:23.236Z,29.59
2023-09-07T11:14:51.356Z,31.01
2023-09-07T11:17:19.360Z,29.93
2023-09-07T11:19:53.445Z,31.16
2023-09-07T11:22:21.369Z,29.36
2023-09-07T11:24:50.624Z,29.25
2023-09-07T11:27:20.006Z,31.02
2023-09-07T11:29:53.712Z,29.01
2023-09-07T11:32:23.736Z,28.46
2023-09-07T11:34:52.429Z,28.49
2023-09-07T11:37:24.975Z,30.15
2023-09-07T11:39:54.481Z,28.27
2023-09-07T11:42:22.467Z,28.08
2023-09-07T11:44:50.372Z,28.56
2023-09-07T11:47:18.407Z,30.70
2023-09-07T11:49:46.525Z,26.94
2023-09-07T11:52:14.577Z,27.50
2023-09-07T11:54:42.487Z,29.99
2023-09-07T11:57:11.805Z,27.77
2023-09-07T11:59:56.132Z,28.61
2023-09-07T12:02:27.984Z,28.73
2023-09-07T12:04:56.618Z,27.63
2023-09-07T12:07:24.743Z,28.14
2023-09-07T12:09:52.846Z,27.74
2023-09-07T12:12:22.256Z,27.67
2023-09-07T12:14:50.182Z,27.91
2023-09-07T12:17:18.490Z,28.38
2023-09-07T12:19:47.063Z,27.33
2023-09-07T12:22:15.124Z,28.09
2023-09-07T12:24:43.004Z,28.72
2023-09-07T12:27:10.921Z,30.24
2023-09-07T12:29:40.252Z,28.35
2023-09-07T12:32:08.226Z,28.71
2023-09-07T12:34:36.253Z,29.16
2023-09-07T12:37:05.565Z,30.36
2023-09-07T12:39:33.782Z,30.71
2023-09-07T12:42:02.652Z,30.37
2023-09-07T12:44:30.537Z,30.17
2023-09-07T12:46:59.843Z,29.68
2023-09-07T12:49:27.713Z,31.24
2023-09-07T12:51:55.600Z,29.80
2023-09-07T12:54:23.609Z,29.84
2023-09-07T12:56:51.596Z,30.00
2023-09-07T12:59:19.488Z,29.93
2023-09-07T13:01:48.541Z,30.21
2023-09-07T13:04:17.794Z,30.30
2023-09-07T13:06:45.677Z,30.13
2023-09-07T13:09:13.645Z,29.48
2023-09-07T13:11:41.571Z,30.10
2023-09-07T13:14:12.124Z,30.65
2023-09-07T13:16:40.558Z,29.75
2023-09-07T13:19:08.702Z,29.88
2023-09-07T13:21:38.005Z,29.97
2023-09-07T13:24:06.393Z,30.20
2023-09-07T13:26:34.810Z,30.25
2023-09-07T13:29:02.722Z,30.35
2023-09-07T13:31:30.715Z,30.08
2023-09-07T13:33:58.652Z,29.72
2023-09-07T13:36:26.610Z,29.89
2023-09-07T13:38:57.944Z,30.28
2023-09-07T13:41:25.856Z,30.83
2023-09-07T13:43:54.951Z,30.53
2023-09-07T13:46:24.422Z,30.00
2023-09-07T13:48:52.421Z,30.11
2023-09-07T13:51:20.332Z,29.84
2023-09-07T13:53:48.260Z,29.98
2023-09-07T13:56:17.629Z,30.34
2023-09-07T13:58:45.529Z,30.34
2023-09-07T14:01:13.467Z,30.09
2023-09-07T14:03:41.666Z,30.13
2023-09-07T14:06:09.490Z,30.68
2023-09-07T14:08:37.374Z,30.90
2023-09-07T14:11:05.369Z,30.22
2023-09-07T14:13:36.306Z,30.34
2023-09-07T14:16:04.332Z,30.72
2023-09-07T14:18:32.319Z,30.00
2023-09-07T14:21:02.102Z,32.09
2023-09-07T14:23:30.338Z,29.77
2023-09-07T14:25:59.977Z,30.01
2023-09-07T14:28:28.095Z,30.98
2023-09-07T14:30:59.978Z,29.98
2023-09-07T14:33:28.015Z,30.25
2023-09-07T14:35:56.129Z,30.48
2023-09-07T14:38:24.916Z,30.96
2023-09-07T14:40:55.785Z,30.51
2023-09-07T14:43:24.005Z,30.90
2023-09-07T14:45:51.953Z,30.90
2023-09-07T14:48:21.262Z,30.98
2023-09-07T14:50:49.249Z,31.13
2023-09-07T14:53:18.272Z,31.51
2023-09-07T14:55:46.905Z,31.19
2023-09-07T14:58:15.302Z,31.53
2023-09-07T15:00:43.238Z,31.24
2023-09-07T15:03:11.283Z,30.97
2023-09-07T15:05:42.101Z,31.23
2023-09-07T15:08:10.984Z,31.40
2023-09-07T15:10:39.031Z,31.66
2023-09-07T15:13:08.142Z,34.56
2023-09-07T15:15:38.364Z,32.12
2023-09-07T15:18:06.895Z,31.66
2023-09-07T15:20:35.258Z,32.15
2023-09-07T15:23:05.500Z,31.47
2023-09-07T15:25:33.680Z,32.40
2023-09-07T15:28:01.636Z,32.11
2023-09-07T15:30:29.641Z,31.69
2023-09-07T15:32:57.680Z,31.88
2023-09-07T15:35:27.077Z,31.59
2023-09-07T15:37:55.777Z,31.56
2023-09-07T15:40:25.181Z,32.13
2023-09-07T15:42:53.033Z,32.30
2023-09-07T15:45:20.968Z,32.60
2023-09-07T15:47:49.713Z,32.57
2023-09-07T15:50:17.724Z,33.21
2023-09-07T15:52:48.324Z,33.22
2023-09-07T15:55:17.290Z,32.99
2023-09-07T15:57:48.635Z,32.80
2023-09-07T16:00:17.891Z,32.99
2023-09-07T16:02:46.072Z,32.66
2023-09-07T16:05:14.145Z,33.53
2023-09-07T16:07:42.195Z,33.17
2023-09-07T16:10:11.235Z,33.29
2023-09-07T16:12:39.198Z,33.18
2023-09-07T16:15:09.875Z,33.26
2023-09-07T16:17:38.998Z,33.27
2023-09-07T16:20:09.709Z,33.12
2023-09-07T16:22:37.747Z,33.46
2023-09-07T16:25:06.175Z,32.53
2023-09-07T16:27:39.297Z,33.74
2023-09-07T16:30:09.426Z,32.44
2023-09-07T16:32:38.908Z,33.04
2023-09-07T16:35:07.577Z,32.62
2023-09-07T16:37:35.538Z,32.43
2023-09-07T16:40:03.875Z,32.74
2023-09-07T16:42:31.798Z,32.61
2023-09-07T16:44:59.686Z,32.79
2023-09-07T16:47:29.061Z,33.28
2023-09-07T16:49:57.076Z,32.75
2023-09-07T16:52:24.980Z,33.21
2023-09-07T16:54:52.987Z,33.17
2023-09-07T16:57:21.282Z,33.40
2023-09-07T16:59:56.978Z,33.75
2023-09-07T17:02:26.093Z,34.03
2023-09-07T17:04:55.564Z,34.01
2023-09-07T17:07:24.366Z,33.76
2023-09-07T17:09:52.666Z,33.83
2023-09-07T17:12:20.593Z,34.16
2023-09-07T17:14:49.331Z,34.61
2023-09-07T17:17:17.523Z,34.64
2023-09-07T17:19:45.570Z,34.78
2023-09-07T17:22:14.859Z,34.96
2023-09-07T17:24:42.837Z,34.85
2023-09-07T17:27:10.825Z,35.17
2023-09-07T17:29:38.911Z,35.01
2023-09-07T17:32:07.515Z,37.06
2023-09-07T17:34:37.025Z,35.76
2023-09-07T17:37:06.783Z,35.83
2023-09-07T17:39:37.563Z,35.58
2023-09-07T17:42:06.256Z,36.00
2023-09-07T17:44:34.435Z,35.89
2023-09-07T17:47:02.514Z,36.60
2023-09-07T17:49:30.434Z,37.04
2023-09-07T17:51:59.369Z,38.20
2023-09-07T17:54:27.923Z,37.47
2023-09-07T17:56:57.332Z,36.84
2023-09-07T17:59:25.553Z,37.70
2023-09-07T18:01:56.970Z,40.79
2023-09-07T18:04:25.635Z,37.74
2023-09-07T18:06:53.730Z,39.15
2023-09-07T18:09:21.711Z,39.66
2023-09-07T18:11:49.780Z,39.73
2023-09-07T18:14:19.024Z,38.58
2023-09-07T18:16:47.117Z,40.33
2023-09-07T18:19:15.058Z,38.98
2023-09-07T18:21:43.018Z,40.21
2023-09-07T18:24:11.136Z,41.22
2023-09-07T18:26:39.086Z,41.29
2023-09-07T18:29:07.047Z,39.76
2023-09-07T18:31:36.476Z,39.76
2023-09-07T18:34:05.562Z,43.38
2023-09-07T18:36:33.746Z,42.89
2023-09-07T18:39:01.647Z,41.63
2023-09-07T18:41:29.810Z,42.24
2023-09-07T18:43:57.667Z,42.29
2023-09-07T18:46:25.769Z,42.29
2023-09-07T18:48:55.126Z,41.46
2023-09-07T18:51:23.119Z,40.57
2023-09-07T18:53:51.112Z,43.60
2023-09-07T18:56:19.057Z,42.83
2023-09-07T18:58:46.932Z,41.96
2023-09-07T19:01:16.688Z,42.53
2023-09-07T19:03:47.473Z,43.44
2023-09-07T19:06:17.066Z,42.72
2023-09-07T19:08:45.242Z,41.21
2023-09-07T19:11:15.881Z,42.58
2023-09-07T19:13:44.286Z,41.94
2023-09-07T19:16:15.322Z,44.10
2023-09-07T19:18:43.583Z,44.66
2023-09-07T19:21:23.307Z,43.90
2023-09-07T19:23:54.244Z,44.71
2023-09-07T19:26:33.287Z,44.20
2023-09-07T19:29:03.641Z,44.13
2023-09-07T19:31:31.838Z,43.90
2023-09-07T19:34:00.309Z,43.87
2023-09-07T19:36:29.331Z,44.88
2023-09-07T19:39:01.494Z,44.73
2023-09-07T19:41:30.348Z,46.31
2023-09-07T19:43:58.620Z,45.63
2023-09-07T19:46:26.894Z,44.65
2023-09-07T19:48:55.272Z,45.16
2023-09-07T19:51:24.475Z,45.37
2023-09-07T19:53:52.512Z,43.92
2023-09-07T19:56:24.917Z,46.10
2023-09-07T19:58:54.453Z,45.66
2023-09-07T20:01:23.789Z,45.62
2023-09-07T20:03:53.775Z,46.06
2023-09-07T20:06:23.356Z,45.94
2023-09-07T20:08:52.490Z,45.90
2023-09-07T20:11:21.768Z,46.32
2023-09-07T20:13:49.722Z,46.42
2023-09-07T20:16:17.776Z,46.92
2023-09-07T20:18:47.165Z,46.53
2023-09-07T20:21:15.126Z,46.56
2023-09-07T20:23:43.029Z,45.99
2023-09-07T20:26:11.022Z,46.15
2023-09-07T20:28:42.504Z,47.20
2023-09-07T20:31:11.134Z,46.33
2023-09-07T20:33:39.655Z,47.71
2023-09-07T20:36:08.252Z,47.59
2023-09-07T20:38:37.221Z,46.97
2023-09-07T20:41:05.663Z,47.36
2023-09-07T20:43:33.677Z,46.91
2023-09-07T20:46:05.858Z,47.48
2023-09-07T20:48:34.661Z,47.99
2023-09-07T20:51:05.500Z,48.51
2023-09-07T20:53:33.879Z,49.35
2023-09-07T20:56:01.747Z,48.82
2023-09-07T20:58:29.762Z,48.73
2023-09-07T21:00:57.968Z,48.14
2023-09-07T21:03:27.484Z,48.50
2023-09-07T21:05:55.909Z,48.91
2023-09-07T21:08:23.807Z,49.52
2023-09-07T21:10:51.818Z,48.60
2023-09-07T21:13:19.796Z,51.27
2023-09-07T21:15:47.760Z,50.09
2023-09-07T21:18:15.853Z,51.36
2023-09-07T21:20:47.322Z,49.74
2023-09-07T21:23:15.495Z,50.20
2023-09-07T21:25:44.726Z,50.62
2023-09-07T21:28:12.761Z,49.84
2023-09-07T21:30:40.875Z,51.46
2023-09-07T21:33:10.426Z,49.39
2023-09-07T21:35:38.617Z,49.93
2023-09-07T21:38:08.163Z,49.42
2023-09-07T21:40:36.543Z,49.75
2023-09-07T21:43:04.678Z,50.21
2023-09-07T21:45:32.686Z,51.21
2023-09-07T21:48:00.702Z,50.12
2023-09-07T21:50:28.772Z,51.35
2023-09-07T21:52:56.732Z,50.44
2023-09-07T21:55:26.138Z,52.43
2023-09-07T21:57:54.097Z,50.83
2023-09-07T22:00:22.603Z,51.35
2023-09-07T22:02:51.101Z,50.92
2023-09-07T22:05:19.905Z,51.90
2023-09-07T22:07:47.924Z,51.96
2023-09-07T22:10:16.053Z,50.84
2023-09-07T22:12:45.397Z,52.58
2023-09-07T22:15:13.451Z,53.04
2023-09-07T22:17:43.907Z,52.32
2023-09-07T22:20:12.278Z,52.36
2023-09-07T22:22:40.261Z,52.40
2023-09-07T22:25:09.232Z,52.17
2023-09-07T22:27:37.267Z,52.99
2023-09-07T22:30:08.353Z,52.37
2023-09-07T22:32:36.547Z,52.12
2023-09-07T22:35:06.643Z,52.38
2023-09-07T22:37:34.693Z,53.76
2023-09-07T22:40:02.708Z,52.60
2023-09-07T22:42:30.718Z,53.62
2023-09-07T22:44:58.872Z,54.94
2023-09-07T22:47:28.167Z,53.68
2023-09-07T22:49:56.356Z,53.58
2023-09-07T22:52:24.689Z,54.75
2023-09-07T22:54:52.778Z,54.33
2023-09-07T22:57:20.984Z,53.98
2023-09-07T22:59:49.116Z,53.93
2023-09-07T23:02:17.113Z,53.21
2023-09-07T23:04:46.501Z,54.37
2023-09-07T23:07:14.726Z,53.82
2023-09-07T23:09:46.365Z,53.43
2023-09-07T23:12:14.567Z,53.07
2023-09-07T23:14:43.012Z,55.09
2023-09-07T23:17:11.100Z,54.27
2023-09-07T23:19:39.385Z,53.41
2023-09-07T23:22:08.884Z,54.62
2023-09-07T23:24:36.899Z,53.79
2023-09-07T23:27:05.982Z,53.92
2023-09-07T23:29:34.413Z,54.60
2023-09-07T23:32:02.864Z,54.46
2023-09-07T23:34:32.564Z,55.79
2023-09-07T23:37:00.960Z,54.61
2023-09-07T23:39:30.534Z,56.01
2023-09-07T23:41:58.674Z,54.91
2023-09-07T23:44:26.773Z,54.67
2023-09-07T23:46:54.775Z,53.96
2023-09-07T23:49:22.903Z,54.15
2023-09-07T23:51:50.917Z,56.55
2023-09-07T23:54:18.974Z,55.98
2023-09-07T23:56:48.473Z,56.21
2023-09-07T23:59:16.552Z,56.71
